Terminal Aerodrome Forecast
Issued by NWS Sterling, VA

Current Version | Previous Version | Graphics & Text | Print | Product List | Glossary On
Versions: 1 2 3 4 5 6 7 8 9 10 11 12 13 14 15 16 17 18 19 20 21 22 23 24 25
000
FTUS41 KLWX 030534
TAFIAD
TAF
KIAD 030534Z 0306/0412 VRB03KT P6SM FEW090
     FM030900 VRB03KT 5SM BR SCT090
     FM031200 32004KT P6SM SCT090
     FM031600 32007KT P6SM SCT060
     FM032200 34006KT P6SM BKN060=

USA.gov is the U.S. government's official web portal to all federal, state and local government web resources and services.